createdAt,value
2023-12-20T00:00:50.119Z,61.11
2023-12-20T00:01:50.288Z,60.88
2023-12-20T00:02:50.142Z,59.22
2023-12-20T00:03:50.209Z,60.17
2023-12-20T00:04:50.330Z,59.26
2023-12-20T00:05:50.317Z,61.21
2023-12-20T00:06:50.471Z,60.14
2023-12-20T00:07:50.932Z,59.88
2023-12-20T00:08:50.513Z,56.92
2023-12-20T00:09:50.577Z,61.36
2023-12-20T00:10:50.635Z,60.45
2023-12-20T00:11:50.601Z,60.25
2023-12-20T00:12:50.661Z,62.84
2023-12-20T00:13:52.034Z,58.45
2023-12-20T00:14:53.906Z,60.59
2023-12-20T00:15:52.952Z,59.18
2023-12-20T00:16:50.961Z,59.38
2023-12-20T00:17:51.065Z,59.76
2023-12-20T00:18:50.982Z,60.35
2023-12-20T00:19:51.061Z,60.56
2023-12-20T00:20:51.006Z,58.93
2023-12-20T00:21:50.982Z,60.16
2023-12-20T00:22:51.093Z,61.75
2023-12-20T00:23:50.931Z,60.93
2023-12-20T00:24:51.255Z,57.72
2023-12-20T00:25:51.023Z,60.75
2023-12-20T00:26:51.188Z,59.05
2023-12-20T00:27:51.099Z,59.85
2023-12-20T00:28:51.171Z,60.12
2023-12-20T00:29:51.211Z,61.76
2023-12-20T00:30:51.293Z,63.01
2023-12-20T00:31:51.394Z,61.26
2023-12-20T00:32:51.354Z,60.74
2023-12-20T00:33:51.589Z,59.02
2023-12-20T00:34:51.440Z,57.81
2023-12-20T00:35:51.365Z,56.31
2023-12-20T00:36:51.477Z,59.29
2023-12-20T00:37:51.445Z,60.38
2023-12-20T00:38:51.472Z,57.88
2023-12-20T00:39:51.591Z,59.06
2023-12-20T00:40:51.619Z,59.19
2023-12-20T00:41:51.627Z,60.95
2023-12-20T00:42:51.652Z,56.78
2023-12-20T00:43:51.690Z,60.19
2023-12-20T00:44:51.694Z,59.17
2023-12-20T00:45:51.756Z,60.00
2023-12-20T00:46:52.033Z,58.89
2023-12-20T00:47:52.095Z,57.70
2023-12-20T00:48:51.863Z,60.50
2023-12-20T00:49:51.877Z,57.96
2023-12-20T00:50:51.905Z,59.65
2023-12-20T00:51:51.970Z,59.68
2023-12-20T00:52:51.955Z,59.18
2023-12-20T00:53:51.951Z,59.51
2023-12-20T00:54:52.049Z,58.58
2023-12-20T00:55:52.008Z,59.56
2023-12-20T00:56:52.070Z,58.07
2023-12-20T00:57:52.083Z,60.11
2023-12-20T00:58:52.077Z,59.60
2023-12-20T00:59:52.133Z,60.73
2023-12-20T01:00:52.286Z,57.85
2023-12-20T01:01:52.263Z,57.05
2023-12-20T01:02:52.234Z,57.92
2023-12-20T01:03:52.305Z,58.35
2023-12-20T01:04:52.270Z,58.97
2023-12-20T01:05:52.403Z,58.20
2023-12-20T01:06:52.317Z,61.22
2023-12-20T01:07:52.383Z,59.10
2023-12-20T01:08:52.422Z,56.71
2023-12-20T01:09:52.470Z,56.67
2023-12-20T01:10:52.476Z,58.85
2023-12-20T01:11:52.502Z,59.75
2023-12-20T01:12:52.557Z,58.31
2023-12-20T01:13:52.596Z,57.22
2023-12-20T01:14:52.605Z,59.43
2023-12-20T01:15:52.659Z,60.29
2023-12-20T01:16:52.654Z,60.49
2023-12-20T01:18:07.957Z,61.40
2023-12-20T01:18:53.084Z,61.50
2023-12-20T01:19:53.070Z,61.77
2023-12-20T01:20:52.932Z,61.54
2023-12-20T01:21:52.916Z,61.48
2023-12-20T01:22:52.781Z,61.51
2023-12-20T01:23:52.746Z,61.75
2023-12-20T01:24:52.762Z,59.40
2023-12-20T01:25:52.945Z,61.45
2023-12-20T01:26:52.684Z,63.19
2023-12-20T01:27:52.688Z,61.25
2023-12-20T01:28:52.710Z,61.13
2023-12-20T01:29:52.667Z,58.53
2023-12-20T01:30:52.826Z,60.08
2023-12-20T01:31:52.816Z,56.63
2023-12-20T01:32:52.866Z,58.74
2023-12-20T01:33:52.737Z,61.07
2023-12-20T01:34:52.775Z,57.72
2023-12-20T01:35:52.680Z,58.54
2023-12-20T01:36:52.749Z,58.95
2023-12-20T01:37:52.719Z,57.89
2023-12-20T01:38:52.679Z,58.87
2023-12-20T01:39:52.694Z,57.33
2023-12-20T01:40:52.709Z,58.30
2023-12-20T01:41:52.768Z,56.98
2023-12-20T01:42:52.722Z,56.55
2023-12-20T01:43:52.756Z,56.44
2023-12-20T01:44:52.756Z,57.52
2023-12-20T01:45:52.734Z,58.50
2023-12-20T01:46:52.727Z,58.48
2023-12-20T01:47:52.787Z,58.76
2023-12-20T01:48:52.888Z,57.81
2023-12-20T01:49:52.828Z,59.34
2023-12-20T01:50:52.698Z,58.01
2023-12-20T01:51:52.728Z,54.73
2023-12-20T01:52:52.706Z,58.44
2023-12-20T01:53:52.736Z,60.36
2023-12-20T01:54:52.770Z,57.84
2023-12-20T01:55:52.727Z,58.19
2023-12-20T01:56:52.738Z,57.09
2023-12-20T01:57:52.727Z,57.77
2023-12-20T01:58:52.756Z,57.92
2023-12-20T01:59:52.773Z,57.90
2023-12-20T02:00:52.924Z,58.43
2023-12-20T02:01:52.932Z,56.81
2023-12-20T02:02:52.723Z,56.22
2023-12-20T02:03:52.898Z,59.54
2023-12-20T02:04:52.911Z,54.75
2023-12-20T02:05:52.753Z,57.29
2023-12-20T02:06:52.813Z,56.87
2023-12-20T02:07:52.864Z,58.00
2023-12-20T02:08:52.737Z,57.86
2023-12-20T02:09:52.812Z,57.06
2023-12-20T02:10:52.773Z,56.73
2023-12-20T02:11:52.739Z,58.07
2023-12-20T02:12:52.799Z,55.65
2023-12-20T02:13:52.773Z,58.36
2023-12-20T02:14:52.707Z,57.21
2023-12-20T02:15:52.785Z,58.16
2023-12-20T02:16:52.763Z,56.38
2023-12-20T02:17:52.788Z,54.68
2023-12-20T02:18:52.853Z,57.02
2023-12-20T02:19:52.909Z,56.95
2023-12-20T02:20:52.785Z,58.77
2023-12-20T02:21:52.790Z,59.15
2023-12-20T02:22:52.758Z,55.91
2023-12-20T02:23:52.819Z,54.97
2023-12-20T02:24:52.787Z,58.16
2023-12-20T02:25:52.832Z,57.47
2023-12-20T02:26:52.763Z,57.71
2023-12-20T02:27:52.795Z,54.95
2023-12-20T02:28:52.747Z,55.95
2023-12-20T02:29:52.757Z,56.40
2023-12-20T02:30:52.838Z,57.75
2023-12-20T02:31:52.859Z,54.85
2023-12-20T02:32:52.834Z,56.44
2023-12-20T02:33:52.886Z,57.59
2023-12-20T02:34:52.847Z,55.42
2023-12-20T02:35:52.763Z,56.31
2023-12-20T02:36:52.854Z,56.65
2023-12-20T02:37:52.799Z,57.18
2023-12-20T02:38:52.780Z,56.75
2023-12-20T02:39:52.783Z,58.11
2023-12-20T02:40:52.774Z,57.08
2023-12-20T02:41:52.763Z,57.50
2023-12-20T02:42:52.829Z,54.53
2023-12-20T02:43:52.854Z,53.51
2023-12-20T02:44:52.779Z,56.99
2023-12-20T02:45:52.810Z,54.19
2023-12-20T02:46:53.047Z,54.18
2023-12-20T02:47:53.072Z,55.01
2023-12-20T02:48:53.044Z,56.46
2023-12-20T02:49:52.870Z,57.53
2023-12-20T02:50:52.802Z,55.72
2023-12-20T02:51:52.873Z,56.12
2023-12-20T02:52:52.925Z,56.33
2023-12-20T02:53:52.814Z,57.00
2023-12-20T02:54:52.813Z,56.88
2023-12-20T02:55:52.780Z,56.50
2023-12-20T02:56:52.793Z,56.92
2023-12-20T02:57:52.885Z,57.18
2023-12-20T02:58:52.849Z,54.88
2023-12-20T02:59:52.803Z,54.24
2023-12-20T03:00:52.820Z,56.93
2023-12-20T03:01:52.928Z,56.86
2023-12-20T03:02:52.814Z,56.37
2023-12-20T03:03:52.855Z,55.45
2023-12-20T03:04:52.864Z,55.64
2023-12-20T03:05:52.868Z,54.42
2023-12-20T03:06:52.868Z,56.35
2023-12-20T03:07:52.818Z,56.77
2023-12-20T03:08:52.815Z,56.57
2023-12-20T03:10:06.096Z,56.58
2023-12-20T03:10:53.885Z,56.39
2023-12-20T03:11:52.836Z,56.75
2023-12-20T03:12:52.885Z,57.78
2023-12-20T03:13:52.827Z,57.14
2023-12-20T03:14:52.836Z,56.89
2023-12-20T03:15:53.699Z,55.42
2023-12-20T03:16:52.876Z,56.15
2023-12-20T03:17:52.980Z,55.23
2023-12-20T03:18:52.885Z,58.36
2023-12-20T03:19:52.878Z,57.73
2023-12-20T03:20:52.810Z,54.62
2023-12-20T03:21:52.868Z,55.80
2023-12-20T03:22:52.833Z,54.86
2023-12-20T03:23:52.898Z,55.81
2023-12-20T03:24:52.946Z,55.76
2023-12-20T03:25:52.890Z,57.29
2023-12-20T03:26:52.812Z,56.55
2023-12-20T03:27:52.848Z,55.57
2023-12-20T03:28:52.822Z,55.42
2023-12-20T03:29:52.886Z,57.72
2023-12-20T03:30:52.924Z,57.61
2023-12-20T03:31:52.909Z,57.55
2023-12-20T03:32:52.850Z,57.37
2023-12-20T03:33:52.890Z,56.60
2023-12-20T03:34:53.022Z,56.59
2023-12-20T03:35:52.924Z,56.60
2023-12-20T03:36:52.851Z,54.74
2023-12-20T03:37:52.900Z,54.88
2023-12-20T03:38:52.888Z,56.42
2023-12-20T03:39:52.871Z,56.77
2023-12-20T03:40:52.899Z,54.77
2023-12-20T03:41:52.878Z,54.45
2023-12-20T03:42:52.888Z,54.70
2023-12-20T03:43:52.857Z,56.41
2023-12-20T03:44:52.865Z,56.60
2023-12-20T03:45:52.895Z,55.72
2023-12-20T03:46:52.908Z,55.41
2023-12-20T03:47:52.958Z,56.05
2023-12-20T03:48:52.930Z,56.95
2023-12-20T03:49:52.947Z,56.35
2023-12-20T03:50:52.868Z,56.84
2023-12-20T03:51:52.917Z,55.90
2023-12-20T03:52:52.907Z,56.44
2023-12-20T03:53:52.841Z,57.60
2023-12-20T03:54:52.947Z,57.09
2023-12-20T03:55:52.891Z,56.54
2023-12-20T03:56:52.871Z,56.54
2023-12-20T03:57:52.880Z,54.49
2023-12-20T03:58:52.954Z,54.64
2023-12-20T03:59:52.865Z,57.26
2023-12-20T04:00:52.952Z,56.05
2023-12-20T04:01:53.149Z,56.57
2023-12-20T04:02:52.896Z,57.95
2023-12-20T04:03:52.962Z,55.73
2023-12-20T04:04:52.884Z,58.80
2023-12-20T04:05:52.912Z,57.65
2023-12-20T04:06:53.012Z,56.81
2023-12-20T04:07:52.978Z,58.92
2023-12-20T04:09:14.190Z,59.31
2023-12-20T04:09:53.186Z,59.40
2023-12-20T04:10:53.139Z,59.81
2023-12-20T04:11:53.170Z,59.92
2023-12-20T04:12:53.167Z,60.05
2023-12-20T04:13:53.083Z,60.10
2023-12-20T04:14:52.955Z,59.76
2023-12-20T04:15:53.192Z,62.04
2023-12-20T04:16:52.890Z,59.16
2023-12-20T04:17:52.932Z,59.84
2023-12-20T04:18:53.154Z,60.86
2023-12-20T04:19:52.937Z,58.56
2023-12-20T04:20:52.898Z,60.51
2023-12-20T04:21:52.988Z,59.22
2023-12-20T04:22:52.893Z,61.72
2023-12-20T04:23:52.942Z,61.21
2023-12-20T04:24:52.946Z,60.00
2023-12-20T04:25:52.924Z,59.29
2023-12-20T04:26:52.921Z,60.03
2023-12-20T04:27:52.930Z,59.98
2023-12-20T04:28:55.319Z,60.75
2023-12-20T04:29:53.102Z,60.77
2023-12-20T04:30:53.202Z,60.81
2023-12-20T04:31:53.201Z,59.97
2023-12-20T04:33:00.696Z,50.00
2023-12-20T04:34:00.690Z,50.00
2023-12-20T04:35:00.690Z,50.00
2023-12-20T04:36:00.564Z,50.00
2023-12-20T04:37:00.699Z,50.00
2023-12-20T04:38:00.468Z,53.53
2023-12-20T04:39:00.664Z,51.00
2023-12-20T04:40:00.561Z,50.64
2023-12-20T04:41:00.432Z,53.17
2023-12-20T04:42:00.434Z,52.55
2023-12-20T04:43:00.472Z,53.17
2023-12-20T04:44:00.435Z,54.03
2023-12-20T04:45:00.436Z,51.41
2023-12-20T04:46:00.462Z,54.31
2023-12-20T04:47:00.468Z,53.43
2023-12-20T04:48:00.521Z,53.31
2023-12-20T04:49:00.557Z,52.60
2023-12-20T04:50:00.690Z,53.00
2023-12-20T04:51:00.463Z,50.38
2023-12-20T04:52:00.604Z,53.91
2023-12-20T04:53:00.416Z,50.98
2023-12-20T04:54:00.432Z,54.81
2023-12-20T04:55:00.587Z,52.89
2023-12-20T04:56:00.546Z,56.08
2023-12-20T04:57:00.443Z,54.57
2023-12-20T04:58:00.478Z,53.81
2023-12-20T04:59:00.445Z,51.14
2023-12-20T05:00:00.463Z,54.14
2023-12-20T05:01:00.562Z,56.81
2023-12-20T05:02:00.546Z,53.22
2023-12-20T05:03:00.465Z,56.40
2023-12-20T05:04:00.507Z,54.49
2023-12-20T05:05:00.491Z,56.30
2023-12-20T05:06:00.435Z,56.03
2023-12-20T05:07:00.539Z,58.27
2023-12-20T05:08:00.572Z,58.46
2023-12-20T05:09:00.452Z,55.90
2023-12-20T05:10:00.477Z,57.84
2023-12-20T05:11:00.483Z,60.05
2023-12-20T05:12:00.479Z,60.30
2023-12-20T05:13:00.447Z,60.45
2023-12-20T05:14:00.506Z,61.76
2023-12-20T05:15:00.441Z,61.00
2023-12-20T05:16:00.481Z,61.46
2023-12-20T05:17:00.466Z,61.53
2023-12-20T05:18:00.473Z,65.68
2023-12-20T05:19:00.477Z,64.28
2023-12-20T05:20:00.531Z,64.72
2023-12-20T05:21:00.488Z,62.75
2023-12-20T05:22:00.475Z,62.76
2023-12-20T05:23:00.443Z,65.41
2023-12-20T05:24:00.477Z,63.62
2023-12-20T05:25:00.548Z,65.20
2023-12-20T05:26:00.505Z,64.76
2023-12-20T05:27:24.352Z,63.45
2023-12-20T05:28:00.768Z,63.60
2023-12-20T05:29:00.708Z,64.42
2023-12-20T05:30:00.736Z,65.14
2023-12-20T05:31:00.860Z,66.27
2023-12-20T05:32:00.676Z,66.85
2023-12-20T05:33:00.896Z,68.77
2023-12-20T05:34:00.854Z,63.07
2023-12-20T05:35:00.564Z,63.25
2023-12-20T05:36:00.779Z,64.93
2023-12-20T05:37:00.581Z,62.77
2023-12-20T05:38:00.548Z,61.25
2023-12-20T05:39:00.479Z,58.48
2023-12-20T05:40:00.679Z,60.82
2023-12-20T05:41:00.509Z,59.02
2023-12-20T05:42:00.513Z,58.45
2023-12-20T05:43:00.521Z,59.09
2023-12-20T05:44:00.486Z,58.73
2023-12-20T05:45:00.570Z,54.42
2023-12-20T05:46:00.569Z,59.18
2023-12-20T05:47:00.494Z,54.60
2023-12-20T05:48:00.641Z,56.94
2023-12-20T05:49:00.677Z,56.65
2023-12-20T05:50:00.492Z,56.92
2023-12-20T05:51:00.509Z,54.01
2023-12-20T05:52:00.610Z,54.43
2023-12-20T05:53:00.537Z,53.82
2023-12-20T05:54:00.507Z,57.18
2023-12-20T05:55:00.544Z,53.76
2023-12-20T05:56:00.503Z,52.21
2023-12-20T05:57:00.567Z,55.88
2023-12-20T05:58:02.078Z,53.56
2023-12-20T05:59:00.612Z,54.99
2023-12-20T06:00:00.520Z,54.97
2023-12-20T06:01:00.603Z,51.35
2023-12-20T06:02:00.579Z,54.63
2023-12-20T06:03:00.549Z,54.95
2023-12-20T06:04:00.684Z,54.88
2023-12-20T06:05:00.713Z,53.02
2023-12-20T06:06:10.483Z,53.83
2023-12-20T06:07:01.632Z,53.84
2023-12-20T06:08:00.614Z,53.93
2023-12-20T06:09:00.539Z,53.95
2023-12-20T06:10:00.626Z,54.63
2023-12-20T06:11:00.558Z,52.13
2023-12-20T06:12:00.546Z,53.13
2023-12-20T06:13:00.589Z,52.33
2023-12-20T06:14:00.573Z,51.03
2023-12-20T06:15:00.583Z,50.98
2023-12-20T06:16:00.573Z,52.34
2023-12-20T06:17:00.546Z,55.10
2023-12-20T06:18:00.598Z,52.39
2023-12-20T06:19:00.622Z,55.38
2023-12-20T06:20:00.756Z,56.24
2023-12-20T06:21:00.563Z,56.45
2023-12-20T06:22:00.566Z,54.93
2023-12-20T06:23:00.550Z,53.64
2023-12-20T06:24:00.571Z,54.87
2023-12-20T06:25:01.575Z,54.91
2023-12-20T06:26:00.574Z,55.08
2023-12-20T06:27:00.610Z,53.81
2023-12-20T06:28:00.576Z,55.64
2023-12-20T06:29:00.582Z,54.91
2023-12-20T06:30:00.680Z,57.92
2023-12-20T06:31:00.642Z,56.57
2023-12-20T06:32:00.558Z,60.65
2023-12-20T06:33:00.648Z,57.57
2023-12-20T06:34:00.635Z,58.73
2023-12-20T06:35:00.781Z,59.43
2023-12-20T06:36:00.617Z,60.17
2023-12-20T06:37:00.640Z,58.08
2023-12-20T06:38:00.562Z,54.98
2023-12-20T06:39:00.584Z,53.79
2023-12-20T06:40:00.774Z,54.18
2023-12-20T06:41:00.705Z,50.84
2023-12-20T06:42:00.750Z,50.01
2023-12-20T06:43:06.702Z,51.44
2023-12-20T06:44:01.860Z,51.54
2023-12-20T06:45:00.814Z,51.99
2023-12-20T06:46:00.868Z,52.69
2023-12-20T06:47:00.841Z,52.52
2023-12-20T06:48:00.927Z,48.89
2023-12-20T06:49:00.929Z,56.83
2023-12-20T06:50:00.985Z,54.86
2023-12-20T06:51:00.868Z,57.36
2023-12-20T06:52:00.877Z,58.70
2023-12-20T06:53:00.962Z,59.75
2023-12-20T06:54:00.946Z,63.26
2023-12-20T06:55:01.160Z,65.41
2023-12-20T06:56:00.995Z,67.83
2023-12-20T06:57:01.071Z,70.00
2023-12-20T06:58:01.184Z,72.65
2023-12-20T06:59:01.190Z,70.96
2023-12-20T07:00:01.653Z,75.46
2023-12-20T07:01:01.341Z,78.19
2023-12-20T07:02:01.360Z,80.11
2023-12-20T07:03:01.348Z,81.20
2023-12-20T07:04:01.399Z,85.46
2023-12-20T07:05:01.688Z,84.71
2023-12-20T07:06:01.480Z,87.82
2023-12-20T07:07:01.582Z,87.97
2023-12-20T07:08:01.579Z,89.28
2023-12-20T07:09:01.522Z,87.28
2023-12-20T07:10:01.717Z,90.49
2023-12-20T07:11:01.677Z,91.46
2023-12-20T07:12:01.641Z,90.75
2023-12-20T07:13:01.671Z,93.96
2023-12-20T07:14:02.179Z,95.22
2023-12-20T07:15:02.099Z,96.20
2023-12-20T07:16:01.771Z,96.77
2023-12-20T07:17:01.676Z,96.57
2023-12-20T07:18:01.768Z,99.39
2023-12-20T07:19:01.915Z,103.18
2023-12-20T07:20:02.290Z,100.10
2023-12-20T07:21:01.737Z,104.23
2023-12-20T07:22:01.844Z,102.96
2023-12-20T07:23:01.786Z,102.95
2023-12-20T07:24:01.801Z,103.09
2023-12-20T07:25:02.342Z,103.71
2023-12-20T07:26:01.834Z,104.83
2023-12-20T07:27:01.850Z,104.39
2023-12-20T07:28:01.908Z,102.78
2023-12-20T07:29:01.862Z,107.04
2023-12-20T07:30:02.102Z,119.00
2023-12-20T07:31:04.925Z,131.65
2023-12-20T07:32:01.929Z,136.19
2023-12-20T07:33:02.073Z,135.48
2023-12-20T07:34:02.094Z,135.15
2023-12-20T07:35:02.108Z,131.59
2023-12-20T07:36:02.230Z,125.31
2023-12-20T07:37:02.117Z,122.78
2023-12-20T07:38:01.940Z,116.14
2023-12-20T07:39:01.922Z,114.61
2023-12-20T07:40:01.995Z,112.50
2023-12-20T07:41:01.967Z,109.93
2023-12-20T07:42:01.962Z,107.17
2023-12-20T07:43:01.969Z,106.28
2023-12-20T07:44:01.961Z,104.53
2023-12-20T07:45:01.977Z,103.25
2023-12-20T07:46:01.968Z,103.40
2023-12-20T07:47:01.926Z,102.13
2023-12-20T07:48:23.208Z,99.29
2023-12-20T07:49:01.980Z,99.43
2023-12-20T07:50:02.358Z,99.68
2023-12-20T07:51:02.099Z,100.71
2023-12-20T07:52:01.980Z,100.73
2023-12-20T07:53:01.958Z,101.60
2023-12-20T07:54:02.237Z,99.29
2023-12-20T07:55:02.017Z,98.88
2023-12-20T07:56:01.966Z,96.61
2023-12-20T07:57:02.293Z,95.14
2023-12-20T07:58:01.952Z,98.69
2023-12-20T07:59:02.011Z,96.32
2023-12-20T08:00:02.098Z,95.04
2023-12-20T08:01:02.125Z,91.33
2023-12-20T08:02:02.125Z,97.47
2023-12-20T08:03:01.962Z,101.81
2023-12-20T08:04:02.215Z,100.86
2023-12-20T08:05:02.546Z,105.46
2023-12-20T08:06:02.144Z,106.87
2023-12-20T08:07:02.207Z,106.20
2023-12-20T08:08:01.949Z,106.40
2023-12-20T08:09:06.606Z,104.34
2023-12-20T08:10:03.032Z,104.57
2023-12-20T08:11:01.983Z,104.83
2023-12-20T08:12:01.966Z,106.11
2023-12-20T08:13:01.995Z,108.52
2023-12-20T08:14:01.992Z,112.16
2023-12-20T08:15:03.430Z,111.27
2023-12-20T08:16:04.276Z,111.28
2023-12-20T08:17:02.034Z,111.04
2023-12-20T08:18:02.010Z,111.73
2023-12-20T08:19:02.054Z,111.73
2023-12-20T08:20:02.717Z,113.44
2023-12-20T08:21:01.987Z,116.77
2023-12-20T08:22:02.113Z,115.61
2023-12-20T08:23:02.019Z,115.13
2023-12-20T08:24:02.030Z,117.35
2023-12-20T08:25:02.061Z,118.19
2023-12-20T08:26:02.140Z,115.12
2023-12-20T08:27:01.978Z,116.64
2023-12-20T08:28:02.224Z,115.48
2023-12-20T08:29:02.699Z,117.32
2023-12-20T08:30:01.974Z,114.65
2023-12-20T08:31:02.288Z,112.91
2023-12-20T08:32:02.169Z,115.47
2023-12-20T08:33:02.038Z,118.40
2023-12-20T08:34:02.275Z,118.48
2023-12-20T08:35:02.049Z,121.27
2023-12-20T08:36:02.149Z,128.01
2023-12-20T08:37:02.118Z,128.69
2023-12-20T08:38:02.018Z,128.61
2023-12-20T08:39:02.060Z,126.79
2023-12-20T08:40:02.063Z,123.74
2023-12-20T08:41:02.128Z,120.42
2023-12-20T08:42:02.021Z,119.68
2023-12-20T08:43:02.116Z,117.87
2023-12-20T08:44:02.104Z,118.28
2023-12-20T08:45:02.137Z,116.13
2023-12-20T08:46:02.702Z,118.24
2023-12-20T08:47:02.308Z,116.79
2023-12-20T08:48:03.403Z,117.37
2023-12-20T08:49:02.530Z,115.46
2023-12-20T08:50:03.641Z,114.89
2023-12-20T08:51:02.438Z,115.60
2023-12-20T08:52:02.560Z,111.77
2023-12-20T08:53:03.908Z,112.60
2023-12-20T08:54:02.613Z,110.76
2023-12-20T08:55:02.678Z,109.50
2023-12-20T08:56:03.172Z,110.88
2023-12-20T08:57:02.750Z,111.49
2023-12-20T08:58:02.814Z,110.57
2023-12-20T08:59:02.826Z,108.86
2023-12-20T09:00:02.940Z,107.43
2023-12-20T09:01:03.194Z,108.38
2023-12-20T09:02:02.976Z,109.46
2023-12-20T09:03:03.053Z,109.98
2023-12-20T09:04:03.274Z,108.07
2023-12-20T09:05:03.226Z,108.99
2023-12-20T09:06:03.073Z,109.10
2023-12-20T09:07:03.238Z,109.42
2023-12-20T09:08:03.166Z,107.65
2023-12-20T09:09:03.670Z,107.06
2023-12-20T09:10:03.298Z,107.48
2023-12-20T09:11:03.301Z,107.15
2023-12-20T09:12:03.318Z,106.52
2023-12-20T09:13:03.336Z,106.67
2023-12-20T09:14:03.674Z,106.37
2023-12-20T09:15:03.415Z,105.45
2023-12-20T09:16:03.451Z,104.79
2023-12-20T09:17:03.495Z,102.48
2023-12-20T09:18:03.601Z,106.01
2023-12-20T09:19:03.868Z,104.15
2023-12-20T09:20:03.698Z,106.11
2023-12-20T09:21:03.627Z,103.01
2023-12-20T09:22:03.703Z,104.14
2023-12-20T09:23:03.775Z,103.51
2023-12-20T09:24:04.164Z,103.38
2023-12-20T09:25:04.200Z,103.54
2023-12-20T09:26:03.803Z,103.47
2023-12-20T09:27:04.173Z,105.22
2023-12-20T09:28:03.917Z,105.92
2023-12-20T09:29:03.897Z,109.57
2023-12-20T09:30:04.042Z,112.29
2023-12-20T09:31:04.020Z,117.55
2023-12-20T09:32:04.150Z,121.15
2023-12-20T09:33:04.161Z,123.70
2023-12-20T09:34:04.167Z,126.60
2023-12-20T09:35:04.374Z,130.05
2023-12-20T09:36:04.254Z,131.86
2023-12-20T09:37:04.266Z,132.64
2023-12-20T09:38:04.645Z,134.50
2023-12-20T09:39:04.265Z,133.67
2023-12-20T09:40:04.389Z,136.19
2023-12-20T09:41:04.308Z,136.23
2023-12-20T09:42:04.333Z,136.28
2023-12-20T09:43:04.715Z,133.70
2023-12-20T09:44:04.398Z,130.07
2023-12-20T09:45:04.464Z,130.78
2023-12-20T09:46:04.534Z,126.44
2023-12-20T09:47:04.527Z,124.54
2023-12-20T09:48:04.677Z,122.50
2023-12-20T09:49:04.778Z,122.49
2023-12-20T09:50:04.826Z,120.71
2023-12-20T09:51:04.789Z,122.06
2023-12-20T09:52:04.820Z,119.35
2023-12-20T09:53:05.215Z,119.04
2023-12-20T09:54:04.947Z,116.56
2023-12-20T09:55:05.059Z,119.04
2023-12-20T09:56:05.056Z,119.06
2023-12-20T09:57:05.149Z,117.26
2023-12-20T09:58:05.746Z,120.02
2023-12-20T09:59:05.243Z,117.93
2023-12-20T10:00:05.349Z,117.94
2023-12-20T10:01:05.518Z,117.04
2023-12-20T10:02:05.527Z,115.45
2023-12-20T10:03:05.542Z,114.57
2023-12-20T10:04:11.110Z,114.08
2023-12-20T10:05:06.724Z,113.36
2023-12-20T10:06:05.915Z,113.65
2023-12-20T10:07:07.121Z,109.01
2023-12-20T10:08:05.701Z,108.65
2023-12-20T10:09:05.596Z,106.85
2023-12-20T10:10:05.737Z,108.25
2023-12-20T10:11:05.651Z,107.09
2023-12-20T10:12:07.208Z,106.84
2023-12-20T10:13:05.780Z,108.06
2023-12-20T10:14:06.309Z,108.07
2023-12-20T10:15:06.025Z,104.32
2023-12-20T10:16:05.914Z,102.19
2023-12-20T10:17:06.003Z,104.38
2023-12-20T10:18:06.238Z,102.57
2023-12-20T10:19:06.085Z,101.99
2023-12-20T10:20:06.214Z,103.57
2023-12-20T10:21:06.301Z,103.04
2023-12-20T10:22:06.314Z,101.50
2023-12-20T10:23:06.393Z,98.97
2023-12-20T10:24:06.390Z,98.62
2023-12-20T10:25:06.571Z,98.45
2023-12-20T10:26:07.130Z,97.73
2023-12-20T10:27:06.646Z,98.76
2023-12-20T10:28:06.725Z,98.14
2023-12-20T10:29:06.786Z,98.39
2023-12-20T10:30:06.861Z,101.67
2023-12-20T10:31:07.030Z,102.00
2023-12-20T10:32:06.994Z,97.21
2023-12-20T10:33:07.047Z,94.60
2023-12-20T10:34:07.358Z,94.65
2023-12-20T10:35:07.415Z,98.07
2023-12-20T10:36:07.173Z,100.11
2023-12-20T10:37:07.244Z,102.56
2023-12-20T10:38:07.273Z,102.62
2023-12-20T10:39:07.350Z,100.43
2023-12-20T10:40:07.447Z,99.01
2023-12-20T10:41:07.475Z,98.78
2023-12-20T10:42:09.606Z,98.54
2023-12-20T10:43:07.707Z,97.23
2023-12-20T10:44:07.642Z,96.54
2023-12-20T10:45:07.612Z,97.72
2023-12-20T10:46:07.675Z,97.08
2023-12-20T10:47:07.736Z,99.15
2023-12-20T10:48:07.837Z,96.75
2023-12-20T10:49:07.854Z,95.87
2023-12-20T10:50:08.427Z,92.10
2023-12-20T10:51:07.834Z,95.29
2023-12-20T10:52:07.978Z,96.19
2023-12-20T10:53:07.933Z,94.71
2023-12-20T10:54:07.971Z,95.79
2023-12-20T10:55:08.064Z,95.77
2023-12-20T10:56:08.593Z,96.70
2023-12-20T10:57:08.257Z,96.76
2023-12-20T10:58:08.207Z,98.49
2023-12-20T10:59:08.116Z,93.99
2023-12-20T11:00:08.114Z,95.35
2023-12-20T11:01:08.216Z,95.13
2023-12-20T11:02:08.431Z,92.91
2023-12-20T11:03:08.676Z,93.36
2023-12-20T11:04:08.800Z,95.00
2023-12-20T11:05:08.401Z,92.75
2023-12-20T11:06:08.709Z,91.47
2023-12-20T11:07:08.348Z,93.21
2023-12-20T11:08:08.672Z,91.98
2023-12-20T11:09:08.369Z,91.97
2023-12-20T11:10:08.388Z,92.34
2023-12-20T11:11:08.326Z,93.39
2023-12-20T11:12:08.328Z,95.93
2023-12-20T11:13:10.052Z,95.33
2023-12-20T11:14:08.378Z,97.24
2023-12-20T11:15:08.437Z,95.65
2023-12-20T11:16:08.470Z,95.17
2023-12-20T11:17:08.558Z,95.98
2023-12-20T11:18:08.675Z,93.06
2023-12-20T11:19:08.909Z,94.50
2023-12-20T11:20:08.919Z,92.90
2023-12-20T11:21:08.521Z,92.29
2023-12-20T11:22:08.597Z,88.32
2023-12-20T11:23:08.464Z,88.07
2023-12-20T11:24:08.489Z,88.80
2023-12-20T11:25:08.588Z,87.72
2023-12-20T11:26:08.593Z,87.01
2023-12-20T11:27:08.540Z,83.24
2023-12-20T11:28:08.587Z,83.30
2023-12-20T11:29:08.624Z,78.02
2023-12-20T11:30:08.593Z,79.71
2023-12-20T11:31:08.750Z,80.87
2023-12-20T11:32:08.734Z,79.23
2023-12-20T11:33:08.907Z,80.43
2023-12-20T11:34:08.965Z,80.75
2023-12-20T11:35:09.188Z,81.25
2023-12-20T11:36:09.134Z,82.40
2023-12-20T11:37:09.127Z,84.08
2023-12-20T11:38:09.184Z,84.62
2023-12-20T11:39:11.286Z,84.63
2023-12-20T11:40:09.365Z,85.44
2023-12-20T11:41:09.394Z,82.00
2023-12-20T11:42:09.457Z,83.22
2023-12-20T11:43:09.576Z,84.10
2023-12-20T11:44:09.601Z,84.43
2023-12-20T11:45:09.654Z,83.62
2023-12-20T11:46:10.142Z,83.11
2023-12-20T11:48:09.847Z,83.93
2023-12-20T11:49:09.959Z,83.99
2023-12-20T11:50:10.087Z,82.07
2023-12-20T11:51:10.024Z,83.95
2023-12-20T11:52:10.142Z,82.17
2023-12-20T11:53:10.172Z,80.72
2023-12-20T11:54:10.315Z,80.38
2023-12-20T11:55:10.328Z,81.66
2023-12-20T11:56:10.350Z,79.88
2023-12-20T11:57:10.433Z,78.82
2023-12-20T11:58:10.580Z,81.10
2023-12-20T11:59:16.854Z,84.60
2023-12-20T12:00:11.547Z,84.62
2023-12-20T12:01:10.687Z,82.94
2023-12-20T12:02:10.564Z,82.22
2023-12-20T12:03:10.540Z,84.12
2023-12-20T12:04:10.608Z,84.14
2023-12-20T12:05:10.880Z,86.78
2023-12-20T12:06:10.604Z,85.92
2023-12-20T12:07:10.572Z,87.02
2023-12-20T12:08:11.301Z,85.38
2023-12-20T12:09:10.530Z,87.23
2023-12-20T12:10:10.682Z,88.74
2023-12-20T12:11:10.640Z,89.30
2023-12-20T12:12:13.147Z,86.05
2023-12-20T12:13:10.754Z,94.31
2023-12-20T12:14:11.361Z,92.77
2023-12-20T12:15:10.770Z,92.41
2023-12-20T12:16:10.812Z,93.99
2023-12-20T12:17:10.711Z,94.15
2023-12-20T12:18:10.820Z,93.77
2023-12-20T12:19:10.837Z,95.33
2023-12-20T12:20:10.819Z,95.28
2023-12-20T12:21:15.767Z,92.23
2023-12-20T12:22:13.689Z,92.24
2023-12-20T12:23:10.750Z,92.26
2023-12-20T12:24:10.868Z,92.53
2023-12-20T12:25:10.771Z,93.45
2023-12-20T12:26:10.760Z,95.29
2023-12-20T12:27:10.752Z,96.37
2023-12-20T12:28:10.797Z,99.17
2023-12-20T12:29:10.791Z,98.59
2023-12-20T12:30:10.969Z,100.76
2023-12-20T12:31:10.922Z,101.63
2023-12-20T12:32:11.116Z,103.17
2023-12-20T12:33:10.849Z,101.80
2023-12-20T12:34:10.860Z,105.43
2023-12-20T12:35:10.900Z,104.15
2023-12-20T12:36:10.801Z,104.78
2023-12-20T12:37:10.893Z,108.29
2023-12-20T12:38:10.783Z,109.11
2023-12-20T12:39:10.790Z,106.73
2023-12-20T12:40:10.826Z,107.89
2023-12-20T12:41:10.790Z,105.78
2023-12-20T12:42:10.814Z,108.31
2023-12-20T12:43:10.914Z,106.41
2023-12-20T12:44:17.400Z,105.54
2023-12-20T12:45:11.808Z,105.67
2023-12-20T12:46:10.930Z,105.46
2023-12-20T12:47:10.800Z,104.90
2023-12-20T12:48:10.849Z,102.51